Etusivu
METAR-TAF:

METAR-TAF

Lentoasemat :

Trondheim, Norja

Trondheimin lentoasema

Leveyspiiri: 63-28N, Pituuspiiri: 010-56E, korkeus merenpinnasta: 1 m

Tämänhetkinen sää

Tämä raportti tehtiin 38 minuuttia sitten, kello 14.20 UTC
Tuuli 4 kn idästä
Lämpötila -2°C
Kosteus 86%
Ilmanpaine 983 hPa
Näkyvyys 10 km tai enemmän
Hajanaisia pilviä 5000 ft:n korkeudessa

METAR: ENVA 131420Z 09004KT 9999 SCT050 M02/M04 Q0983 NOSIG RMK WIND 670FT 14006KT

Aika: 15:58 (14:58 UTC)

Sääennuste

Ennuste voimassa 13. päivästä klo 12 UTC - 14. päivään klo 12 UTC
Tuuli 5 kn idästä
Näkyvyys 10 km tai enemmän
Muutamia pilviä 4000 ft:n korkeudessa

TAF: ENVA 1312/1412 10005KT 9999 FEW040

Säähavainnot ja -ennusteet yli 4000 lentoasemalta (METAR- ja TAF-raportit).

Käytössä olevat sääasemat on merkitty karttaan keltaisilla ja punaisilla pisteillä.

Aseta hiiri pisteen päälle nähdäksesi sääaseman nimen.

Klikkaa sitten nähdäksesi säähavainnot ja -ennusteet.

Kartan vaihtaminen: klikkaa mustalla rastilla varustettuja vihreitä pisteitä, niin voit zoomata sisään; viivalla varustettua vihreää pistettä, niin voit zoomata ulos tai vihreitä nuolia, niin pääset viereisille kartoille.


METAR-TAF: